createdAt,value
2024-03-22T00:01:58.684Z,2.04
2024-03-22T00:04:27.297Z,1.99
2024-03-22T00:06:55.952Z,1.92
2024-03-22T00:09:26.941Z,1.87
2024-03-22T00:11:55.417Z,1.84
2024-03-22T00:14:24.697Z,1.80
2024-03-22T00:16:53.175Z,1.79
2024-03-22T00:19:23.085Z,1.77
2024-03-22T00:21:51.372Z,1.76
2024-03-22T00:24:19.503Z,1.75
2024-03-22T00:26:48.016Z,1.75
2024-03-22T00:29:17.277Z,1.73
2024-03-22T00:31:45.414Z,1.70
2024-03-22T00:34:13.624Z,1.67
2024-03-22T00:36:41.632Z,1.65
2024-03-22T00:39:09.762Z,1.62
2024-03-22T00:41:38.204Z,1.61
2024-03-22T00:44:06.382Z,1.56
2024-03-22T00:46:34.545Z,1.53
2024-03-22T00:49:06.567Z,1.50
2024-03-22T00:51:34.767Z,1.48
2024-03-22T00:54:03.926Z,1.44
2024-03-22T00:56:32.147Z,1.39
2024-03-22T00:59:01.848Z,1.37
2024-03-22T01:01:30.368Z,1.34
2024-03-22T01:03:58.602Z,1.33
2024-03-22T01:06:28.364Z,1.33
2024-03-22T01:08:57.381Z,1.33
2024-03-22T01:11:25.901Z,1.32
2024-03-22T01:13:54.061Z,1.32
2024-03-22T01:16:22.708Z,1.31
2024-03-22T01:18:50.991Z,1.30
2024-03-22T01:21:26.010Z,1.28
2024-03-22T01:23:54.368Z,1.26
2024-03-22T01:26:22.570Z,1.24
2024-03-22T01:28:50.990Z,1.21
2024-03-22T01:31:19.271Z,1.19
2024-03-22T01:33:47.939Z,1.15
2024-03-22T01:36:16.379Z,1.12
2024-03-22T01:38:47.019Z,1.09
2024-03-22T01:41:15.855Z,1.07
2024-03-22T01:43:44.192Z,1.04
2024-03-22T01:46:12.505Z,1.02
2024-03-22T01:48:41.492Z,0.99
2024-03-22T01:51:11.003Z,0.95
2024-03-22T01:53:39.486Z,0.93
2024-03-22T01:56:10.719Z,0.90
2024-03-22T01:58:39.118Z,0.88
2024-03-22T02:01:07.282Z,0.85
2024-03-22T02:03:35.606Z,0.83
2024-03-22T02:06:05.651Z,0.80
2024-03-22T02:08:35.242Z,0.79
2024-03-22T02:11:03.646Z,0.76
2024-03-22T02:13:31.798Z,0.74
2024-03-22T02:15:59.810Z,0.73
2024-03-22T02:18:28.036Z,0.71
2024-03-22T02:20:58.589Z,0.67
2024-03-22T02:23:37.768Z,0.64
2024-03-22T02:26:07.312Z,0.62
2024-03-22T02:28:37.338Z,0.59
2024-03-22T02:31:06.611Z,0.56
2024-03-22T02:33:35.094Z,0.54
2024-03-22T02:36:03.678Z,0.52
2024-03-22T02:38:32.399Z,0.50
2024-03-22T02:41:00.617Z,0.49
2024-03-22T02:43:29.667Z,0.48
2024-03-22T02:45:57.940Z,0.47
2024-03-22T02:48:26.408Z,0.47
2024-03-22T02:50:57.469Z,0.46
2024-03-22T02:53:28.498Z,0.44
2024-03-22T02:56:00.476Z,0.43
2024-03-22T02:58:28.808Z,0.41
2024-03-22T03:00:57.620Z,0.40
2024-03-22T03:03:25.710Z,0.39
2024-03-22T03:05:54.073Z,0.38
2024-03-22T03:08:22.170Z,0.36
2024-03-22T03:10:50.821Z,0.35
2024-03-22T03:13:18.918Z,0.33
2024-03-22T03:15:47.201Z,0.33
2024-03-22T03:18:15.355Z,0.33
2024-03-22T03:20:43.632Z,0.33
2024-03-22T03:23:11.800Z,0.33
2024-03-22T03:25:40.131Z,0.33
2024-03-22T03:28:08.963Z,0.32
2024-03-22T03:30:37.119Z,0.31
2024-03-22T03:33:05.983Z,0.30
2024-03-22T03:35:34.136Z,0.28
2024-03-22T03:38:05.214Z,0.27
2024-03-22T03:40:36.581Z,0.25
2024-03-22T03:43:05.688Z,0.21
2024-03-22T03:45:38.311Z,0.19
2024-03-22T03:48:06.828Z,0.17
2024-03-22T03:50:36.111Z,0.14
2024-03-22T03:53:04.235Z,0.12
2024-03-22T03:55:36.067Z,0.11
2024-03-22T03:58:04.964Z,0.09
2024-03-22T04:00:33.098Z,0.09
2024-03-22T04:03:01.292Z,0.10
2024-03-22T04:05:29.958Z,0.09
2024-03-22T04:07:58.161Z,0.09
2024-03-22T04:10:26.247Z,0.09
2024-03-22T04:12:54.411Z,0.08
2024-03-22T04:15:26.076Z,0.05
2024-03-22T04:17:57.625Z,0.05
2024-03-22T04:20:25.877Z,0.03
2024-03-22T04:22:54.842Z,0.01
2024-03-22T04:25:23.356Z,0.00
2024-03-22T04:27:51.739Z,-0.02
2024-03-22T04:30:21.679Z,-0.05
2024-03-22T04:32:50.138Z,-0.07
2024-03-22T04:35:21.381Z,-0.10
2024-03-22T04:37:51.009Z,-0.13
2024-03-22T04:40:19.236Z,-0.14
2024-03-22T04:42:47.754Z,-0.15
2024-03-22T04:45:16.343Z,-0.17
2024-03-22T04:47:45.470Z,-0.18
2024-03-22T04:50:16.045Z,-0.20
2024-03-22T04:52:44.199Z,-0.20
2024-03-22T04:55:14.468Z,-0.20
2024-03-22T04:57:42.965Z,-0.18
2024-03-22T05:00:12.645Z,-0.19
2024-03-22T05:02:41.780Z,-0.18
2024-03-22T05:05:11.173Z,-0.15
2024-03-22T05:07:39.860Z,-0.12
2024-03-22T05:10:10.508Z,-0.10
2024-03-22T05:12:39.419Z,-0.09
2024-03-22T05:15:11.222Z,-0.08
2024-03-22T05:17:40.232Z,-0.06
2024-03-22T05:20:11.757Z,-0.03
2024-03-22T05:22:40.550Z,0.00
2024-03-22T05:25:09.739Z,0.03
2024-03-22T05:27:38.421Z,0.07
2024-03-22T05:30:08.575Z,0.13
2024-03-22T05:32:38.640Z,0.18
2024-03-22T05:35:08.167Z,0.24
2024-03-22T05:37:37.162Z,0.31
2024-03-22T05:40:07.697Z,0.39
2024-03-22T05:42:36.740Z,0.45
2024-03-22T05:45:06.599Z,0.52
2024-03-22T05:47:38.637Z,0.60
2024-03-22T05:50:10.760Z,0.69
2024-03-22T05:52:39.022Z,0.76
2024-03-22T05:55:08.411Z,0.85
2024-03-22T05:57:39.012Z,0.96
2024-03-22T06:00:15.687Z,1.07
2024-03-22T06:02:44.084Z,1.19
2024-03-22T06:05:15.456Z,1.32
2024-03-22T06:07:48.131Z,1.44
2024-03-22T06:10:20.459Z,1.57
2024-03-22T06:12:50.203Z,1.71
2024-03-22T06:15:18.417Z,1.85
2024-03-22T06:17:48.865Z,2.00
2024-03-22T06:20:24.232Z,2.14
2024-03-22T06:22:52.718Z,2.28
2024-03-22T06:25:21.050Z,2.42
2024-03-22T06:27:49.680Z,2.58
2024-03-22T06:30:22.284Z,2.71
2024-03-22T06:33:00.901Z,2.80
2024-03-22T06:35:34.102Z,2.93
2024-03-22T06:38:05.752Z,3.06
2024-03-22T06:40:37.093Z,3.18
2024-03-22T06:43:05.639Z,3.30
2024-03-22T06:45:35.278Z,3.37
2024-03-22T06:48:05.224Z,3.43
2024-03-22T06:50:35.527Z,3.55
2024-03-22T06:53:06.418Z,3.61
2024-03-22T06:55:35.202Z,3.66
2024-03-22T06:58:03.830Z,3.73
2024-03-22T07:00:32.423Z,3.81
2024-03-22T07:03:04.582Z,3.93
2024-03-22T07:05:33.009Z,4.05
2024-03-22T07:08:05.087Z,4.15
2024-03-22T07:10:34.574Z,4.28
2024-03-22T07:13:05.864Z,4.36
2024-03-22T07:15:36.992Z,4.50
2024-03-22T07:18:06.135Z,4.64
2024-03-22T07:20:34.876Z,4.77
2024-03-22T07:23:05.690Z,4.86
2024-03-22T07:25:40.641Z,5.00
2024-03-22T07:28:11.990Z,5.10
2024-03-22T07:30:41.351Z,5.24
2024-03-22T07:33:17.972Z,5.42
2024-03-22T07:35:46.956Z,5.60
2024-03-22T07:38:17.586Z,5.77
2024-03-22T07:40:49.971Z,5.93
2024-03-22T07:43:20.266Z,6.11
2024-03-22T07:45:48.617Z,6.26
2024-03-22T07:48:18.410Z,6.47
2024-03-22T07:51:00.140Z,6.68
2024-03-22T07:53:32.230Z,6.91
2024-03-22T07:56:01.768Z,6.97
2024-03-22T07:58:30.752Z,7.11
2024-03-22T08:00:58.976Z,7.15
2024-03-22T08:03:31.063Z,7.27
2024-03-22T08:06:02.231Z,7.44
2024-03-22T08:08:32.008Z,7.65
2024-03-22T08:11:00.788Z,7.71
2024-03-22T08:13:33.054Z,7.93
2024-03-22T08:16:02.878Z,8.04
2024-03-22T08:18:31.147Z,8.29
2024-03-22T08:21:00.477Z,8.51
2024-03-22T08:23:29.171Z,8.64
2024-03-22T08:25:58.373Z,8.80
2024-03-22T08:28:36.505Z,8.99
2024-03-22T08:31:09.393Z,9.06
2024-03-22T08:33:39.401Z,9.19
2024-03-22T08:36:09.328Z,9.35
2024-03-22T08:38:40.476Z,9.49
2024-03-22T08:41:12.208Z,9.43
2024-03-22T08:43:40.953Z,9.62
2024-03-22T08:46:20.692Z,9.69
2024-03-22T08:48:51.295Z,9.80
2024-03-22T08:51:19.926Z,9.88
2024-03-22T08:53:52.086Z,9.96
2024-03-22T08:56:24.603Z,9.79
2024-03-22T08:59:02.567Z,9.87
2024-03-22T09:01:31.049Z,10.05
2024-03-22T09:03:59.579Z,10.26
2024-03-22T09:06:28.820Z,10.38
2024-03-22T09:08:58.880Z,10.43
2024-03-22T09:11:29.323Z,10.64
2024-03-22T09:13:57.733Z,10.86
2024-03-22T09:16:26.484Z,10.96
2024-03-22T09:19:00.697Z,11.04
2024-03-22T09:21:30.431Z,11.08
2024-03-22T09:23:58.812Z,11.18
2024-03-22T09:26:28.091Z,11.29
2024-03-22T09:28:56.363Z,11.42
2024-03-22T09:31:24.812Z,11.51
2024-03-22T09:33:52.991Z,11.82
2024-03-22T09:36:22.915Z,11.95
2024-03-22T09:38:51.064Z,12.16
2024-03-22T09:41:28.472Z,12.52
2024-03-22T09:44:01.952Z,12.79
2024-03-22T09:46:35.362Z,12.70
2024-03-22T09:49:07.665Z,12.74
2024-03-22T09:51:39.353Z,12.86
2024-03-22T09:54:11.827Z,12.86
2024-03-22T09:56:43.155Z,12.91
2024-03-22T09:59:12.930Z,13.09
2024-03-22T10:01:43.567Z,13.44
2024-03-22T10:04:12.460Z,13.60
2024-03-22T10:06:40.833Z,13.77
2024-03-22T10:09:10.298Z,13.77
2024-03-22T10:11:38.669Z,13.88
2024-03-22T10:14:12.797Z,13.94
2024-03-22T10:16:41.209Z,14.15
2024-03-22T10:19:11.650Z,14.45
2024-03-22T10:21:40.157Z,14.49
2024-03-22T10:24:09.039Z,14.78
2024-03-22T10:26:37.712Z,14.71
2024-03-22T10:29:10.687Z,14.66
2024-03-22T10:31:40.726Z,14.72
2024-03-22T10:34:12.938Z,15.14
2024-03-22T10:36:48.991Z,15.11
2024-03-22T10:39:20.548Z,15.36
2024-03-22T10:41:50.193Z,15.29
2024-03-22T10:44:19.507Z,15.02
2024-03-22T10:46:50.321Z,15.33
2024-03-22T10:49:25.665Z,15.77
2024-03-22T10:52:07.047Z,16.11
2024-03-22T10:54:39.186Z,15.91
2024-03-22T10:57:18.802Z,16.01
2024-03-22T10:59:57.383Z,16.13
2024-03-22T11:02:26.100Z,16.78
2024-03-22T11:05:02.055Z,17.07
2024-03-22T11:07:33.274Z,16.76
2024-03-22T11:10:10.391Z,16.39
2024-03-22T11:12:44.868Z,16.34
2024-03-22T11:15:16.044Z,17.21
2024-03-22T11:17:44.897Z,17.43
2024-03-22T11:20:15.731Z,17.77
2024-03-22T11:22:47.638Z,18.13
2024-03-22T11:25:20.690Z,18.32
2024-03-22T11:27:50.845Z,18.52
2024-03-22T11:30:23.009Z,18.42
2024-03-22T11:32:54.344Z,18.62
2024-03-22T11:35:33.158Z,19.05
2024-03-22T11:38:02.186Z,19.37
2024-03-22T11:40:35.851Z,19.90
2024-03-22T11:43:06.081Z,20.27
2024-03-22T11:45:45.691Z,21.13
2024-03-22T11:48:14.552Z,21.03
2024-03-22T11:50:46.707Z,21.40
2024-03-22T11:53:21.750Z,22.25
2024-03-22T11:55:51.324Z,22.44
2024-03-22T11:58:20.432Z,21.94
2024-03-22T12:01:12.059Z,21.10
2024-03-22T12:03:42.556Z,22.17
2024-03-22T12:06:13.731Z,21.72
2024-03-22T12:08:45.323Z,20.84
2024-03-22T12:11:15.787Z,19.98
2024-03-22T12:13:46.310Z,19.79
2024-03-22T12:16:17.816Z,20.02
2024-03-22T12:18:49.753Z,20.50
2024-03-22T12:21:20.055Z,20.20
2024-03-22T12:24:12.186Z,19.79
2024-03-22T12:26:42.526Z,20.01
2024-03-22T12:29:14.273Z,19.53
2024-03-22T12:31:44.954Z,19.03
2024-03-22T12:34:15.108Z,19.82
2024-03-22T12:36:44.367Z,20.08
2024-03-22T12:39:20.852Z,18.96
2024-03-22T12:41:49.531Z,18.67
2024-03-22T12:44:17.748Z,18.24
2024-03-22T12:46:46.135Z,18.08
2024-03-22T12:49:17.258Z,18.77
2024-03-22T12:51:52.023Z,19.70
2024-03-22T12:54:23.526Z,20.35
2024-03-22T12:56:53.169Z,20.71
2024-03-22T12:59:28.368Z,20.99
2024-03-22T13:02:01.061Z,21.91
2024-03-22T13:04:30.674Z,22.23
2024-03-22T13:07:00.476Z,21.62
2024-03-22T13:09:30.545Z,21.35
2024-03-22T13:11:59.405Z,20.97
2024-03-22T13:14:34.961Z,19.96
2024-03-22T13:17:08.965Z,19.25
2024-03-22T13:19:39.229Z,18.76
2024-03-22T13:22:13.970Z,18.09
2024-03-22T13:24:48.836Z,17.53
2024-03-22T13:27:17.928Z,17.34
2024-03-22T13:29:46.293Z,17.01
2024-03-22T13:32:21.078Z,16.91
2024-03-22T13:34:50.910Z,16.99
2024-03-22T13:37:20.629Z,16.44
2024-03-22T13:39:59.034Z,16.34
2024-03-22T13:42:27.527Z,16.16
2024-03-22T13:45:02.891Z,16.57
2024-03-22T13:47:38.678Z,16.36
2024-03-22T13:50:11.439Z,16.19
2024-03-22T13:52:39.855Z,16.30
2024-03-22T13:55:10.298Z,16.16
2024-03-22T13:57:39.187Z,15.93
2024-03-22T14:00:15.648Z,15.72
2024-03-22T14:02:45.800Z,15.55
2024-03-22T14:05:14.393Z,15.45
2024-03-22T14:07:46.609Z,15.30
2024-03-22T14:10:17.103Z,15.14
2024-03-22T14:12:53.228Z,15.11
2024-03-22T14:15:26.511Z,15.04
2024-03-22T14:17:56.970Z,14.91
2024-03-22T14:20:33.500Z,14.81
2024-03-22T14:23:02.508Z,14.68
2024-03-22T14:25:34.102Z,14.65
2024-03-22T14:28:05.893Z,14.55
2024-03-22T14:30:49.498Z,14.48
2024-03-22T14:33:20.145Z,14.53
2024-03-22T14:35:54.133Z,14.54
2024-03-22T14:38:22.746Z,14.56
2024-03-22T14:40:55.408Z,14.37
2024-03-22T14:43:37.779Z,14.15
2024-03-22T14:46:06.208Z,14.05
2024-03-22T14:48:36.770Z,14.01
2024-03-22T14:51:06.438Z,13.88
2024-03-22T14:53:37.727Z,13.68
2024-03-22T14:56:11.165Z,13.62
2024-03-22T14:58:39.713Z,13.43
2024-03-22T15:01:07.858Z,13.21
2024-03-22T15:03:37.681Z,13.04
2024-03-22T15:06:06.227Z,13.05
2024-03-22T15:08:35.171Z,12.78
2024-03-22T15:11:05.225Z,12.76
2024-03-22T15:13:33.672Z,12.46
2024-03-22T15:16:02.051Z,12.36
2024-03-22T15:18:31.823Z,12.39
2024-03-22T15:21:03.756Z,12.34
2024-03-22T15:23:35.425Z,12.26
2024-03-22T15:26:10.633Z,12.19
2024-03-22T15:28:42.140Z,12.18
2024-03-22T15:31:22.960Z,12.14
2024-03-22T15:33:55.281Z,12.16
2024-03-22T15:36:32.520Z,12.14
2024-03-22T15:39:05.714Z,12.23
2024-03-22T15:41:33.995Z,12.29
2024-03-22T15:44:03.043Z,12.37
2024-03-22T15:46:35.150Z,12.71
2024-03-22T15:49:05.105Z,13.41
2024-03-22T15:51:35.428Z,14.13
2024-03-22T15:54:05.358Z,14.80
2024-03-22T15:56:35.772Z,15.36
2024-03-22T15:59:08.491Z,15.82
2024-03-22T16:01:36.920Z,15.78
2024-03-22T16:04:05.404Z,15.95
2024-03-22T16:06:35.426Z,15.62
2024-03-22T16:09:07.054Z,15.61
2024-03-22T16:11:39.390Z,15.19
2024-03-22T16:14:11.445Z,14.76
2024-03-22T16:16:42.301Z,14.58
2024-03-22T16:19:15.954Z,14.20
2024-03-22T16:21:46.499Z,13.99
2024-03-22T16:24:23.658Z,13.61
2024-03-22T16:26:57.058Z,13.42
2024-03-22T16:29:25.827Z,13.19
2024-03-22T16:31:56.307Z,13.00
2024-03-22T16:34:27.900Z,12.83
2024-03-22T16:36:56.991Z,12.58
2024-03-22T16:39:25.125Z,12.39
2024-03-22T16:41:54.539Z,12.20
2024-03-22T16:44:22.877Z,11.99
2024-03-22T16:46:51.422Z,11.83
2024-03-22T16:49:21.519Z,11.68
2024-03-22T16:51:51.474Z,11.53
2024-03-22T16:54:20.948Z,11.38
2024-03-22T16:56:53.096Z,11.24
2024-03-22T16:59:22.858Z,11.14
2024-03-22T17:01:55.343Z,11.05
2024-03-22T17:04:29.971Z,10.98
2024-03-22T17:06:58.990Z,10.91
2024-03-22T17:09:27.693Z,10.85
2024-03-22T17:11:59.038Z,10.81
2024-03-22T17:14:29.457Z,10.76
2024-03-22T17:17:01.588Z,10.72
2024-03-22T17:19:30.486Z,10.68
2024-03-22T17:21:59.933Z,10.64
2024-03-22T17:24:31.553Z,10.61
2024-03-22T17:26:59.959Z,10.57
2024-03-22T17:29:28.193Z,10.53
2024-03-22T17:32:00.203Z,10.49
2024-03-22T17:34:28.378Z,10.45
2024-03-22T17:36:56.542Z,10.41
2024-03-22T17:39:27.588Z,10.37
2024-03-22T17:41:56.112Z,10.33
2024-03-22T17:44:25.280Z,10.30
2024-03-22T17:46:55.372Z,10.26
2024-03-22T17:49:24.438Z,10.22
2024-03-22T17:51:52.956Z,10.19
2024-03-22T17:54:21.366Z,10.14
2024-03-22T17:56:50.289Z,10.11
2024-03-22T17:59:18.637Z,10.05
2024-03-22T18:01:51.584Z,9.99
2024-03-22T18:04:20.160Z,9.93
2024-03-22T18:06:49.498Z,9.87
2024-03-22T18:09:19.708Z,9.81
2024-03-22T18:11:51.234Z,9.75
2024-03-22T18:14:20.958Z,9.68
2024-03-22T18:16:50.866Z,9.60
2024-03-22T18:19:19.812Z,9.53
2024-03-22T18:21:50.818Z,9.46
2024-03-22T18:24:20.305Z,9.39
2024-03-22T18:26:51.114Z,9.32
2024-03-22T18:29:21.303Z,9.26
2024-03-22T18:31:53.733Z,9.21
2024-03-22T18:34:22.337Z,9.17
2024-03-22T18:36:50.912Z,9.14
2024-03-22T18:39:19.006Z,9.09
2024-03-22T18:41:47.365Z,9.06
2024-03-22T18:44:16.881Z,9.00
2024-03-22T18:46:48.054Z,8.95
2024-03-22T18:49:16.199Z,8.89
2024-03-22T18:51:47.415Z,8.83
2024-03-22T18:54:16.122Z,8.76
2024-03-22T18:56:47.414Z,8.70
2024-03-22T18:59:15.762Z,8.64
2024-03-22T19:01:48.163Z,8.58
2024-03-22T19:04:26.681Z,8.51
2024-03-22T19:06:55.308Z,8.45
2024-03-22T19:09:24.983Z,8.39
2024-03-22T19:11:54.273Z,8.33
2024-03-22T19:14:24.213Z,8.26
2024-03-22T19:16:53.644Z,8.20
2024-03-22T19:19:21.997Z,8.13
2024-03-22T19:21:50.479Z,8.07
2024-03-22T19:24:19.258Z,8.01
2024-03-22T19:26:47.665Z,7.93
2024-03-22T19:29:18.466Z,7.86
2024-03-22T19:31:47.386Z,7.77
2024-03-22T19:34:16.832Z,7.72
2024-03-22T19:36:48.214Z,7.64
2024-03-22T19:39:18.631Z,7.57
2024-03-22T19:41:49.096Z,7.50
2024-03-22T19:44:17.631Z,7.43
2024-03-22T19:46:46.202Z,7.37
2024-03-22T19:49:18.749Z,7.30
2024-03-22T19:51:46.924Z,7.24
2024-03-22T19:54:15.518Z,7.18
2024-03-22T19:56:47.402Z,7.12
2024-03-22T19:59:17.666Z,7.08
2024-03-22T20:01:45.993Z,7.02
2024-03-22T20:04:14.405Z,6.96
2024-03-22T20:06:42.709Z,6.91
2024-03-22T20:09:12.881Z,6.84
2024-03-22T20:11:45.709Z,6.79
2024-03-22T20:14:14.404Z,6.74
2024-03-22T20:16:46.446Z,6.69
2024-03-22T20:19:15.278Z,6.64
2024-03-22T20:21:43.723Z,6.59
2024-03-22T20:24:12.335Z,6.54
2024-03-22T20:26:41.963Z,6.48
2024-03-22T20:29:11.619Z,6.44
2024-03-22T20:31:43.877Z,6.39
2024-03-22T20:34:13.823Z,6.32
2024-03-22T20:36:42.037Z,6.24
2024-03-22T20:39:12.435Z,6.16
2024-03-22T20:41:43.224Z,6.13
2024-03-22T20:44:13.986Z,6.09
2024-03-22T20:46:42.072Z,6.05
2024-03-22T20:49:13.023Z,6.03
2024-03-22T20:51:42.908Z,6.01
2024-03-22T20:54:14.709Z,5.99
2024-03-22T20:56:45.430Z,5.95
2024-03-22T20:59:13.482Z,5.93
2024-03-22T21:01:41.661Z,5.91
2024-03-22T21:04:12.462Z,5.88
2024-03-22T21:06:43.831Z,5.87
2024-03-22T21:09:13.679Z,5.85
2024-03-22T21:11:42.930Z,5.85
2024-03-22T21:14:12.004Z,5.86
2024-03-22T21:16:42.930Z,5.85
2024-03-22T21:19:16.185Z,5.85
2024-03-22T21:21:45.044Z,5.84
2024-03-22T21:24:17.417Z,5.80
2024-03-22T21:26:48.089Z,5.76
2024-03-22T21:29:16.327Z,5.74
2024-03-22T21:31:47.242Z,5.70
2024-03-22T21:34:17.714Z,5.66
2024-03-22T21:36:48.289Z,5.63
2024-03-22T21:39:17.225Z,5.58
2024-03-22T21:41:48.395Z,5.53
2024-03-22T21:44:17.169Z,5.48
2024-03-22T21:46:45.339Z,5.44
2024-03-22T21:49:13.756Z,5.41
2024-03-22T21:51:41.745Z,5.37
2024-03-22T21:54:11.952Z,5.34
2024-03-22T21:56:40.983Z,5.32
2024-03-22T21:59:09.436Z,5.29
2024-03-22T22:01:39.017Z,5.26
2024-03-22T22:04:07.938Z,5.23
2024-03-22T22:06:36.462Z,5.20
2024-03-22T22:09:13.921Z,5.18
2024-03-22T22:11:44.051Z,5.15
2024-03-22T22:14:13.464Z,5.12
2024-03-22T22:16:42.163Z,5.09
2024-03-22T22:19:10.749Z,5.05
2024-03-22T22:21:43.903Z,5.01
2024-03-22T22:24:13.916Z,4.96
2024-03-22T22:26:42.328Z,4.92
2024-03-22T22:29:11.925Z,4.88
2024-03-22T22:31:40.174Z,4.84
2024-03-22T22:34:08.134Z,4.83
2024-03-22T22:36:39.424Z,4.81
2024-03-22T22:39:10.109Z,4.80
2024-03-22T22:41:39.003Z,4.77
2024-03-22T22:44:09.686Z,4.75
2024-03-22T22:46:38.021Z,4.73
2024-03-22T22:49:07.836Z,4.71
2024-03-22T22:51:39.552Z,4.68
2024-03-22T22:54:08.320Z,4.66
2024-03-22T22:56:39.751Z,4.64
2024-03-22T22:59:10.970Z,4.62
2024-03-22T23:01:39.090Z,4.58
2024-03-22T23:04:07.307Z,4.55
2024-03-22T23:06:35.654Z,4.55
2024-03-22T23:09:03.786Z,4.53
2024-03-22T23:11:32.171Z,4.50
2024-03-22T23:14:00.686Z,4.50
2024-03-22T23:16:28.847Z,4.48
2024-03-22T23:18:58.237Z,4.46
2024-03-22T23:21:26.514Z,4.42
2024-03-22T23:23:54.932Z,4.40
2024-03-22T23:26:26.091Z,4.38
2024-03-22T23:28:57.340Z,4.36
2024-03-22T23:31:25.404Z,4.33
2024-03-22T23:33:54.516Z,4.31
2024-03-22T23:36:25.668Z,4.30
2024-03-22T23:38:57.003Z,4.29
2024-03-22T23:41:25.432Z,4.29
2024-03-22T23:43:54.592Z,4.29
2024-03-22T23:46:22.966Z,4.31
2024-03-22T23:48:51.241Z,4.32
2024-03-22T23:51:20.679Z,4.34
2024-03-22T23:53:49.438Z,4.36
2024-03-22T23:56:18.024Z,4.36
2024-03-22T23:58:49.506Z,4.34
